sensor_id;sensor_type;location;lat;lon;timestamp;pressure;altitude;pressure_sealevel;temperature;humidity
71917;BME280;59793;46.506;6.674;2022-10-31T00:02:18;97680.50;;;15.03;79.03
71917;BME280;59793;46.506;6.674;2022-10-31T00:04:43;97677.97;;;15.11;78.60
71917;BME280;59793;46.506;6.674;2022-10-31T00:07:08;97683.63;;;15.09;78.82
71917;BME280;59793;46.506;6.674;2022-10-31T00:09:34;97686.47;;;15.20;78.62
71917;BME280;59793;46.506;6.674;2022-10-31T00:11:59;97687.88;;;15.14;78.99
71917;BME280;59793;46.506;6.674;2022-10-31T00:14:24;97664.72;;;14.88;79.23
71917;BME280;59793;46.506;6.674;2022-10-31T00:16:50;97688.41;;;15.00;79.05
71917;BME280;59793;46.506;6.674;2022-10-31T00:19:16;97681.44;;;14.92;79.03
71917;BME280;59793;46.506;6.674;2022-10-31T00:21:41;97693.81;;;15.07;77.90
71917;BME280;59793;46.506;6.674;2022-10-31T00:24:07;97632.97;;;14.72;78.06
71917;BME280;59793;46.506;6.674;2022-10-31T00:26:32;97688.81;;;15.02;78.54
71917;BME280;59793;46.506;6.674;2022-10-31T00:28:59;97697.31;;;15.11;78.82
71917;BME280;59793;46.506;6.674;2022-10-31T00:31:24;97677.41;;;15.01;79.15
71917;BME280;59793;46.506;6.674;2022-10-31T00:33:51;97692.41;;;15.13;79.54
71917;BME280;59793;46.506;6.674;2022-10-31T00:36:17;97684.84;;;15.15;79.63
71917;BME280;59793;46.506;6.674;2022-10-31T00:38:44;97691.28;;;15.14;79.46
71917;BME280;59793;46.506;6.674;2022-10-31T00:41:11;97666.41;;;14.99;79.65
71917;BME280;59793;46.506;6.674;2022-10-31T00:43:37;97665.69;;;15.02;80.05
71917;BME280;59793;46.506;6.674;2022-10-31T00:46:02;97677.09;;;15.03;80.12
71917;BME280;59793;46.506;6.674;2022-10-31T00:48:28;97671.78;;;15.03;80.00
71917;BME280;59793;46.506;6.674;2022-10-31T00:50:53;97662.69;;;15.04;80.01
71917;BME280;59793;46.506;6.674;2022-10-31T00:53:19;97640.63;;;15.00;79.67
71917;BME280;59793;46.506;6.674;2022-10-31T00:55:44;97684.25;;;15.25;79.76
71917;BME280;59793;46.506;6.674;2022-10-31T00:58:09;97666.00;;;15.20;79.55
71917;BME280;59793;46.506;6.674;2022-10-31T01:00:35;97669.03;;;15.22;79.61
71917;BME280;59793;46.506;6.674;2022-10-31T01:03:00;97669.47;;;15.24;79.92
71917;BME280;59793;46.506;6.674;2022-10-31T01:05:25;97656.84;;;15.18;79.83
71917;BME280;59793;46.506;6.674;2022-10-31T01:07:51;97665.88;;;15.13;79.98
71917;BME280;59793;46.506;6.674;2022-10-31T01:10:16;97659.88;;;15.16;79.72
71917;BME280;59793;46.506;6.674;2022-10-31T01:12:45;97665.06;;;15.09;80.33
71917;BME280;59793;46.506;6.674;2022-10-31T01:15:12;97670.25;;;15.02;80.30
71917;BME280;59793;46.506;6.674;2022-10-31T01:17:38;97663.56;;;15.12;79.77
71917;BME280;59793;46.506;6.674;2022-10-31T01:20:05;97661.28;;;15.10;80.30
71917;BME280;59793;46.506;6.674;2022-10-31T01:22:31;97665.06;;;15.09;80.29
71917;BME280;59793;46.506;6.674;2022-10-31T01:24:57;97655.09;;;15.02;80.26
71917;BME280;59793;46.506;6.674;2022-10-31T01:27:22;97664.22;;;15.05;80.28
71917;BME280;59793;46.506;6.674;2022-10-31T01:29:48;97658.97;;;15.09;80.30
71917;BME280;59793;46.506;6.674;2022-10-31T01:32:13;97665.44;;;15.11;79.82
71917;BME280;59793;46.506;6.674;2022-10-31T01:34:38;97668.75;;;15.04;79.47
71917;BME280;59793;46.506;6.674;2022-10-31T01:37:03;97666.94;;;14.86;79.46
71917;BME280;59793;46.506;6.674;2022-10-31T01:39:29;97663.72;;;14.53;80.72
71917;BME280;59793;46.506;6.674;2022-10-31T01:41:55;97662.44;;;14.47;81.71
71917;BME280;59793;46.506;6.674;2022-10-31T01:47:05;97667.69;;;14.63;81.60
71917;BME280;59793;46.506;6.674;2022-10-31T01:49:38;97651.47;;;14.68;81.33
71917;BME280;59793;46.506;6.674;2022-10-31T01:52:12;97650.97;;;14.63;80.95
71917;BME280;59793;46.506;6.674;2022-10-31T01:54:46;97640.88;;;14.49;81.51
71917;BME280;59793;46.506;6.674;2022-10-31T01:57:14;97636.44;;;14.53;80.87
71917;BME280;59793;46.506;6.674;2022-10-31T01:59:43;97645.03;;;14.69;80.22
71917;BME280;59793;46.506;6.674;2022-10-31T02:02:11;97634.66;;;14.61;80.37
71917;BME280;59793;46.506;6.674;2022-10-31T02:04:38;97624.41;;;14.40;80.53
71917;BME280;59793;46.506;6.674;2022-10-31T02:07:13;97608.38;;;14.32;80.99
71917;BME280;59793;46.506;6.674;2022-10-31T02:09:40;97649.13;;;14.63;80.86
71917;BME280;59793;46.506;6.674;2022-10-31T02:12:06;97647.63;;;14.66;80.53
71917;BME280;59793;46.506;6.674;2022-10-31T02:14:33;97630.56;;;14.63;80.38
71917;BME280;59793;46.506;6.674;2022-10-31T02:17:00;97634.91;;;14.75;80.04
71917;BME280;59793;46.506;6.674;2022-10-31T02:19:37;97602.78;;;14.57;80.06
71917;BME280;59793;46.506;6.674;2022-10-31T02:25:26;97626.84;;;14.91;80.17
71917;BME280;59793;46.506;6.674;2022-10-31T02:33:26;97618.59;;;14.96;80.34
71917;BME280;59793;46.506;6.674;2022-10-31T02:41:37;97619.88;;;14.82;80.88
71917;BME280;59793;46.506;6.674;2022-10-31T02:49:11;97610.63;;;14.73;80.59
71917;BME280;59793;46.506;6.674;2022-10-31T02:51:41;97597.59;;;14.64;80.88
71917;BME280;59793;46.506;6.674;2022-10-31T02:54:17;97602.59;;;14.69;80.56
71917;BME280;59793;46.506;6.674;2022-10-31T02:56:43;97606.88;;;14.74;80.68
71917;BME280;59793;46.506;6.674;2022-10-31T02:59:09;97608.72;;;14.73;80.75
71917;BME280;59793;46.506;6.674;2022-10-31T03:01:56;97608.84;;;14.80;80.73
71917;BME280;59793;46.506;6.674;2022-10-31T03:04:50;97603.25;;;14.86;79.99
71917;BME280;59793;46.506;6.674;2022-10-31T03:13:10;97603.53;;;14.80;80.22
71917;BME280;59793;46.506;6.674;2022-10-31T03:15:43;97602.97;;;14.68;80.71
71917;BME280;59793;46.506;6.674;2022-10-31T03:18:17;97589.53;;;14.38;82.35
71917;BME280;59793;46.506;6.674;2022-10-31T03:20:54;97590.03;;;14.43;82.23
71917;BME280;59793;46.506;6.674;2022-10-31T03:23:22;97595.59;;;14.57;81.72
71917;BME280;59793;46.506;6.674;2022-10-31T03:25:50;97583.75;;;14.51;81.18
71917;BME280;59793;46.506;6.674;2022-10-31T03:28:23;97576.00;;;14.43;81.10
71917;BME280;59793;46.506;6.674;2022-10-31T03:30:49;97592.59;;;14.40;82.04
71917;BME280;59793;46.506;6.674;2022-10-31T03:33:18;97579.38;;;14.20;82.40
71917;BME280;59793;46.506;6.674;2022-10-31T03:35:48;97596.81;;;14.21;82.74
71917;BME280;59793;46.506;6.674;2022-10-31T03:38:15;97564.00;;;14.06;82.83
71917;BME280;59793;46.506;6.674;2022-10-31T03:40:43;97595.06;;;14.29;82.68
71917;BME280;59793;46.506;6.674;2022-10-31T03:43:16;97587.84;;;14.49;81.90
71917;BME280;59793;46.506;6.674;2022-10-31T03:45:45;97592.13;;;14.53;81.44
71917;BME280;59793;46.506;6.674;2022-10-31T03:48:13;97570.06;;;14.49;81.39
71917;BME280;59793;46.506;6.674;2022-10-31T03:53:40;97595.78;;;14.68;81.03
71917;BME280;59793;46.506;6.674;2022-10-31T03:56:33;97593.34;;;14.82;80.38
71917;BME280;59793;46.506;6.674;2022-10-31T03:59:04;97600.97;;;14.84;80.14
71917;BME280;59793;46.506;6.674;2022-10-31T04:01:34;97596.50;;;14.88;79.85
71917;BME280;59793;46.506;6.674;2022-10-31T04:04:02;97593.19;;;14.95;79.84
71917;BME280;59793;46.506;6.674;2022-10-31T04:06:30;97601.97;;;14.99;80.07
71917;BME280;59793;46.506;6.674;2022-10-31T04:09:02;97604.25;;;15.00;79.96
71917;BME280;59793;46.506;6.674;2022-10-31T04:11:33;97603.06;;;14.98;80.25
71917;BME280;59793;46.506;6.674;2022-10-31T04:14:00;97610.22;;;14.94;80.47
71917;BME280;59793;46.506;6.674;2022-10-31T04:16:27;97589.28;;;14.89;80.55
71917;BME280;59793;46.506;6.674;2022-10-31T04:18:53;97601.78;;;14.88;80.92
71917;BME280;59793;46.506;6.674;2022-10-31T04:21:19;97593.25;;;14.75;81.48
71917;BME280;59793;46.506;6.674;2022-10-31T04:23:44;97543.75;;;14.41;81.64
71917;BME280;59793;46.506;6.674;2022-10-31T04:26:13;97559.72;;;14.44;81.92
71917;BME280;59793;46.506;6.674;2022-10-31T04:28:38;97594.19;;;14.64;82.60
71917;BME280;59793;46.506;6.674;2022-10-31T04:31:04;97590.47;;;14.68;81.93
71917;BME280;59793;46.506;6.674;2022-10-31T04:33:29;97560.88;;;14.66;81.45
71917;BME280;59793;46.506;6.674;2022-10-31T04:35:54;97567.16;;;14.77;81.23
71917;BME280;59793;46.506;6.674;2022-10-31T04:38:20;97588.38;;;14.77;81.53
71917;BME280;59793;46.506;6.674;2022-10-31T04:40:45;97539.34;;;14.48;80.93
71917;BME280;59793;46.506;6.674;2022-10-31T04:43:11;97572.50;;;14.58;81.50
71917;BME280;59793;46.506;6.674;2022-10-31T04:45:37;97587.16;;;14.52;81.47
71917;BME280;59793;46.506;6.674;2022-10-31T04:48:02;97578.34;;;14.48;81.89
71917;BME280;59793;46.506;6.674;2022-10-31T04:50:27;97585.53;;;14.47;81.56
71917;BME280;59793;46.506;6.674;2022-10-31T04:52:53;97570.75;;;14.46;81.31
71917;BME280;59793;46.506;6.674;2022-10-31T04:55:18;97588.06;;;14.40;81.99
71917;BME280;59793;46.506;6.674;2022-10-31T04:57:48;97568.78;;;14.20;82.59
71917;BME280;59793;46.506;6.674;2022-10-31T05:00:17;97594.13;;;14.41;82.34
71917;BME280;59793;46.506;6.674;2022-10-31T05:02:47;97596.16;;;14.47;81.96
71917;BME280;59793;46.506;6.674;2022-10-31T05:05:14;97595.31;;;14.43;81.40
71917;BME280;59793;46.506;6.674;2022-10-31T05:07:43;97587.25;;;14.36;81.52
71917;BME280;59793;46.506;6.674;2022-10-31T05:10:10;97591.09;;;14.39;81.83
71917;BME280;59793;46.506;6.674;2022-10-31T05:12:36;97590.78;;;14.44;82.34
71917;BME280;59793;46.506;6.674;2022-10-31T05:15:02;97552.88;;;14.20;82.42
71917;BME280;59793;46.506;6.674;2022-10-31T05:17:27;97565.91;;;14.29;82.09
71917;BME280;59793;46.506;6.674;2022-10-31T05:19:53;97596.50;;;14.46;82.00
71917;BME280;59793;46.506;6.674;2022-10-31T05:22:18;97591.47;;;14.41;81.98
71917;BME280;59793;46.506;6.674;2022-10-31T05:24:43;97590.50;;;14.49;82.19
71917;BME280;59793;46.506;6.674;2022-10-31T05:27:09;97586.75;;;14.50;82.16
71917;BME280;59793;46.506;6.674;2022-10-31T05:29:34;97573.34;;;14.43;82.47
71917;BME280;59793;46.506;6.674;2022-10-31T05:31:59;97525.78;;;14.07;82.81
71917;BME280;59793;46.506;6.674;2022-10-31T05:34:25;97582.00;;;14.40;82.82
71917;BME280;59793;46.506;6.674;2022-10-31T05:36:50;97569.44;;;14.37;83.14
71917;BME280;59793;46.506;6.674;2022-10-31T05:39:15;97575.94;;;14.39;83.23
71917;BME280;59793;46.506;6.674;2022-10-31T05:41:41;97571.41;;;14.40;83.44
71917;BME280;59793;46.506;6.674;2022-10-31T05:44:06;97562.81;;;14.46;82.96
71917;BME280;59793;46.506;6.674;2022-10-31T05:46:31;97564.41;;;14.51;82.16
71917;BME280;59793;46.506;6.674;2022-10-31T05:48:57;97565.03;;;14.44;82.63
71917;BME280;59793;46.506;6.674;2022-10-31T05:51:22;97561.63;;;14.44;82.34
71917;BME280;59793;46.506;6.674;2022-10-31T05:53:47;97560.78;;;14.40;82.69
71917;BME280;59793;46.506;6.674;2022-10-31T05:56:13;97569.44;;;14.37;83.02
71917;BME280;59793;46.506;6.674;2022-10-31T05:58:38;97567.50;;;14.33;82.94
71917;BME280;59793;46.506;6.674;2022-10-31T06:01:03;97576.22;;;14.34;83.01
71917;BME280;59793;46.506;6.674;2022-10-31T06:03:30;97579.63;;;14.34;82.73
71917;BME280;59793;46.506;6.674;2022-10-31T06:05:55;97574.75;;;14.37;82.28
71917;BME280;59793;46.506;6.674;2022-10-31T06:08:21;97576.44;;;14.25;82.27
71917;BME280;59793;46.506;6.674;2022-10-31T06:10:46;97562.44;;;14.25;81.75
71917;BME280;59793;46.506;6.674;2022-10-31T06:13:11;97572.41;;;14.31;81.27
71917;BME280;59793;46.506;6.674;2022-10-31T06:15:37;97580.22;;;14.24;81.00
71917;BME280;59793;46.506;6.674;2022-10-31T06:18:05;97578.47;;;14.13;81.97
71917;BME280;59793;46.506;6.674;2022-10-31T06:20:32;97582.63;;;14.10;81.84
71917;BME280;59793;46.506;6.674;2022-10-31T06:22:57;97582.19;;;13.88;83.00
71917;BME280;59793;46.506;6.674;2022-10-31T06:25:23;97595.22;;;13.97;83.56
71917;BME280;59793;46.506;6.674;2022-10-31T06:27:48;97566.03;;;13.94;83.27
71917;BME280;59793;46.506;6.674;2022-10-31T06:30:14;97587.63;;;14.15;83.51
71917;BME280;59793;46.506;6.674;2022-10-31T06:32:39;97579.44;;;14.24;83.47
71917;BME280;59793;46.506;6.674;2022-10-31T06:35:05;97575.63;;;14.21;83.99
71917;BME280;59793;46.506;6.674;2022-10-31T06:37:30;97584.28;;;14.41;83.74
71917;BME280;59793;46.506;6.674;2022-10-31T06:39:56;97590.50;;;14.49;83.53
71917;BME280;59793;46.506;6.674;2022-10-31T06:42:21;97586.44;;;14.55;83.20
71917;BME280;59793;46.506;6.674;2022-10-31T06:44:46;97595.22;;;14.59;83.21
71917;BME280;59793;46.506;6.674;2022-10-31T06:47:12;97588.19;;;14.67;83.62
71917;BME280;59793;46.506;6.674;2022-10-31T06:49:37;97594.72;;;14.73;83.35
71917;BME280;59793;46.506;6.674;2022-10-31T06:52:02;97596.97;;;14.71;83.50
71917;BME280;59793;46.506;6.674;2022-10-31T06:54:28;97596.91;;;14.67;83.71
71917;BME280;59793;46.506;6.674;2022-10-31T06:56:53;97604.56;;;14.72;83.60
71917;BME280;59793;46.506;6.674;2022-10-31T06:59:18;97610.53;;;14.89;83.10
71917;BME280;59793;46.506;6.674;2022-10-31T07:01:44;97593.78;;;14.85;83.19
71917;BME280;59793;46.506;6.674;2022-10-31T07:04:10;97627.06;;;15.05;83.21
71917;BME280;59793;46.506;6.674;2022-10-31T07:06:35;97611.81;;;14.98;83.21
71917;BME280;59793;46.506;6.674;2022-10-31T07:09:00;97619.56;;;15.11;83.44
71917;BME280;59793;46.506;6.674;2022-10-31T07:11:26;97635.66;;;15.21;83.04
71917;BME280;59793;46.506;6.674;2022-10-31T07:13:51;97623.25;;;15.29;82.78
71917;BME280;59793;46.506;6.674;2022-10-31T07:16:16;97627.50;;;15.34;82.46
71917;BME280;59793;46.506;6.674;2022-10-31T07:18:42;97593.50;;;15.16;82.17
71917;BME280;59793;46.506;6.674;2022-10-31T07:21:07;97625.97;;;15.33;81.41
71917;BME280;59793;46.506;6.674;2022-10-31T07:23:33;97605.66;;;15.17;81.69
71917;BME280;59793;46.506;6.674;2022-10-31T07:25:59;97616.09;;;15.33;82.32
71917;BME280;59793;46.506;6.674;2022-10-31T07:28:25;97626.00;;;15.36;82.21
71917;BME280;59793;46.506;6.674;2022-10-31T07:30:52;97627.63;;;15.41;82.05
71917;BME280;59793;46.506;6.674;2022-10-31T07:33:17;97623.94;;;15.49;81.48
71917;BME280;59793;46.506;6.674;2022-10-31T07:35:43;97623.94;;;15.49;81.13
71917;BME280;59793;46.506;6.674;2022-10-31T07:38:09;97624.41;;;15.58;81.34
71917;BME280;59793;46.506;6.674;2022-10-31T07:40:35;97629.13;;;15.68;81.26
71917;BME280;59793;46.506;6.674;2022-10-31T07:43:01;97631.09;;;15.71;81.35
71917;BME280;59793;46.506;6.674;2022-10-31T07:45:26;97644.59;;;15.89;81.27
71917;BME280;59793;46.506;6.674;2022-10-31T07:47:52;97647.84;;;15.75;79.13
71917;BME280;59793;46.506;6.674;2022-10-31T07:50:19;97641.81;;;15.78;79.33
71917;BME280;59793;46.506;6.674;2022-10-31T07:52:44;97638.34;;;15.74;79.53
71917;BME280;59793;46.506;6.674;2022-10-31T07:55:10;97643.34;;;15.80;79.62
71917;BME280;59793;46.506;6.674;2022-10-31T07:57:36;97621.41;;;15.60;79.71
71917;BME280;59793;46.506;6.674;2022-10-31T08:00:09;97652.88;;;15.58;79.13
71917;BME280;59793;46.506;6.674;2022-10-31T08:02:35;97646.59;;;15.43;79.07
71917;BME280;59793;46.506;6.674;2022-10-31T08:05:01;97632.25;;;15.47;78.95
71917;BME280;59793;46.506;6.674;2022-10-31T08:07:29;97623.38;;;15.63;78.72
71917;BME280;59793;46.506;6.674;2022-10-31T08:09:55;97623.19;;;15.78;78.81
71917;BME280;59793;46.506;6.674;2022-10-31T08:12:21;97625.41;;;16.03;78.95
71917;BME280;59793;46.506;6.674;2022-10-31T08:14:46;97622.59;;;16.22;78.54
71917;BME280;59793;46.506;6.674;2022-10-31T08:17:11;97618.88;;;16.31;77.96
71917;BME280;59793;46.506;6.674;2022-10-31T08:19:37;97622.22;;;16.61;76.90
71917;BME280;59793;46.506;6.674;2022-10-31T08:22:02;97587.91;;;16.49;76.11
71917;BME280;59793;46.506;6.674;2022-10-31T08:24:27;97611.94;;;16.97;75.96
71917;BME280;59793;46.506;6.674;2022-10-31T08:26:53;97606.84;;;17.33;73.75
71917;BME280;59793;46.506;6.674;2022-10-31T08:29:18;97602.50;;;17.73;74.01
71917;BME280;59793;46.506;6.674;2022-10-31T08:31:44;97561.34;;;17.70;72.76
71917;BME280;59793;46.506;6.674;2022-10-31T08:34:09;97566.13;;;18.20;70.53
71917;BME280;59793;46.506;6.674;2022-10-31T08:36:34;97582.56;;;18.61;69.39
71917;BME280;59793;46.506;6.674;2022-10-31T08:39:00;97586.81;;;19.05;66.90
71917;BME280;59793;46.506;6.674;2022-10-31T08:41:26;97576.09;;;18.58;68.36
71917;BME280;59793;46.506;6.674;2022-10-31T08:43:51;97543.28;;;18.40;68.59
71917;BME280;59793;46.506;6.674;2022-10-31T08:46:17;97586.03;;;18.79;69.00
71917;BME280;59793;46.506;6.674;2022-10-31T08:48:43;97589.75;;;18.18;70.74
71917;BME280;59793;46.506;6.674;2022-10-31T08:51:09;97587.09;;;18.28;69.51
71917;BME280;59793;46.506;6.674;2022-10-31T08:53:34;97553.84;;;17.83;70.41
71917;BME280;59793;46.506;6.674;2022-10-31T08:56:00;97562.28;;;17.99;70.47
71917;BME280;59793;46.506;6.674;2022-10-31T08:58:25;97563.13;;;18.39;69.56
71917;BME280;59793;46.506;6.674;2022-10-31T09:00:53;97566.56;;;19.04;66.74
71917;BME280;59793;46.506;6.674;2022-10-31T09:03:22;97577.66;;;18.88;67.40
71917;BME280;59793;46.506;6.674;2022-10-31T09:05:48;97558.59;;;18.82;67.13
71917;BME280;59793;46.506;6.674;2022-10-31T09:08:14;97566.56;;;18.54;67.84
71917;BME280;59793;46.506;6.674;2022-10-31T09:10:40;97577.66;;;18.81;67.24
71917;BME280;59793;46.506;6.674;2022-10-31T09:13:16;97559.31;;;18.44;68.26
71917;BME280;59793;46.506;6.674;2022-10-31T09:15:43;97548.63;;;18.40;68.45
71917;BME280;59793;46.506;6.674;2022-10-31T09:18:09;97559.34;;;18.83;67.06
71917;BME280;59793;46.506;6.674;2022-10-31T09:20:36;97549.44;;;18.98;66.03
71917;BME280;59793;46.506;6.674;2022-10-31T09:23:06;97568.50;;;18.93;66.16
71917;BME280;59793;46.506;6.674;2022-10-31T09:25:33;97545.97;;;18.51;67.65
71917;BME280;59793;46.506;6.674;2022-10-31T09:28:01;97571.94;;;18.82;67.09
71917;BME280;59793;46.506;6.674;2022-10-31T09:30:27;97574.97;;;18.52;68.39
71917;BME280;59793;46.506;6.674;2022-10-31T09:33:00;97564.59;;;18.19;69.57
71917;BME280;59793;46.506;6.674;2022-10-31T09:35:26;97541.72;;;18.03;69.64
71917;BME280;59793;46.506;6.674;2022-10-31T09:38:00;97567.13;;;17.76;71.26
71917;BME280;59793;46.506;6.674;2022-10-31T09:40:35;97559.28;;;18.26;69.65
71917;BME280;59793;46.506;6.674;2022-10-31T09:46:13;97538.72;;;19.23;66.15
71917;BME280;59793;46.506;6.674;2022-10-31T09:48:56;97557.38;;;19.37;65.50
71917;BME280;59793;46.506;6.674;2022-10-31T09:51:30;97550.50;;;19.25;66.07
71917;BME280;59793;46.506;6.674;2022-10-31T09:56:43;97541.25;;;19.62;64.48
71917;BME280;59793;46.506;6.674;2022-10-31T09:59:33;97534.75;;;19.59;64.21
71917;BME280;59793;46.506;6.674;2022-10-31T10:02:27;97524.81;;;19.67;64.73
71917;BME280;59793;46.506;6.674;2022-10-31T10:05:12;97525.19;;;20.39;61.44
71917;BME280;59793;46.506;6.674;2022-10-31T10:07:59;97515.13;;;20.58;60.64
71917;BME280;59793;46.506;6.674;2022-10-31T10:13:47;97516.31;;;19.90;62.48
71917;BME280;59793;46.506;6.674;2022-10-31T10:27:09;97530.81;;;19.93;62.96
71917;BME280;59793;46.506;6.674;2022-10-31T10:29:50;97523.16;;;19.95;63.70
71917;BME280;59793;46.506;6.674;2022-10-31T10:32:23;97515.91;;;20.55;61.47
71917;BME280;59793;46.506;6.674;2022-10-31T10:34:57;97533.75;;;20.13;62.05
71917;BME280;59793;46.506;6.674;2022-10-31T10:37:30;97535.34;;;20.03;63.41
71917;BME280;59793;46.506;6.674;2022-10-31T10:40:07;97480.53;;;19.59;63.13
71917;BME280;59793;46.506;6.674;2022-10-31T10:42:34;97531.06;;;19.21;65.51
71917;BME280;59793;46.506;6.674;2022-10-31T10:45:20;97515.09;;;18.96;66.00
71917;BME280;59793;46.506;6.674;2022-10-31T10:48:19;97512.78;;;19.13;65.95
71917;BME280;59793;46.506;6.674;2022-10-31T10:50:49;97502.91;;;18.63;67.39
71917;BME280;59793;46.506;6.674;2022-10-31T10:56:30;97500.97;;;18.06;69.86
71917;BME280;59793;46.506;6.674;2022-10-31T10:58:58;97518.44;;;17.93;70.63
71917;BME280;59793;46.506;6.674;2022-10-31T11:01:24;97513.09;;;17.82;71.57
71917;BME280;59793;46.506;6.674;2022-10-31T11:03:49;97500.53;;;17.90;71.00
71917;BME280;59793;46.506;6.674;2022-10-31T11:06:24;97495.97;;;17.90;71.20
71917;BME280;59793;46.506;6.674;2022-10-31T11:08:53;97440.31;;;17.67;70.90
71917;BME280;59793;46.506;6.674;2022-10-31T11:11:30;97468.53;;;17.83;71.32
71917;BME280;59793;46.506;6.674;2022-10-31T11:14:03;97486.91;;;18.52;68.97
71917;BME280;59793;46.506;6.674;2022-10-31T11:16:35;97475.47;;;18.77;67.86
71917;BME280;59793;46.506;6.674;2022-10-31T11:19:16;97475.25;;;19.45;65.72
71917;BME280;59793;46.506;6.674;2022-10-31T11:21:42;97477.97;;;19.34;66.24
71917;BME280;59793;46.506;6.674;2022-10-31T11:26:38;97473.69;;;20.21;63.36
71917;BME280;59793;46.506;6.674;2022-10-31T11:29:05;97463.16;;;20.51;62.45
71917;BME280;59793;46.506;6.674;2022-10-31T11:31:36;97441.38;;;20.49;61.76
71917;BME280;59793;46.506;6.674;2022-10-31T11:34:03;97436.19;;;20.73;60.26
71917;BME280;59793;46.506;6.674;2022-10-31T11:36:33;97434.88;;;20.88;60.58
71917;BME280;59793;46.506;6.674;2022-10-31T11:39:02;97446.06;;;21.17;59.32
71917;BME280;59793;46.506;6.674;2022-10-31T11:41:36;97434.19;;;20.39;61.41
71917;BME280;59793;46.506;6.674;2022-10-31T11:44:22;97443.41;;;20.31;61.61
71917;BME280;59793;46.506;6.674;2022-10-31T11:46:56;97427.44;;;21.37;58.78
71917;BME280;59793;46.506;6.674;2022-10-31T11:49:41;97420.47;;;21.74;57.51
71917;BME280;59793;46.506;6.674;2022-10-31T11:52:20;97382.41;;;20.94;58.33
71917;BME280;59793;46.506;6.674;2022-10-31T11:54:53;97422.78;;;21.11;59.07
71917;BME280;59793;46.506;6.674;2022-10-31T11:59:56;97437.00;;;19.66;63.39
71917;BME280;59793;46.506;6.674;2022-10-31T12:02:22;97430.47;;;20.26;62.77
71917;BME280;59793;46.506;6.674;2022-10-31T12:05:17;97412.91;;;21.04;60.21
71917;BME280;59793;46.506;6.674;2022-10-31T12:07:42;97406.78;;;21.65;57.68
71917;BME280;59793;46.506;6.674;2022-10-31T12:10:10;97414.69;;;22.50;55.06
71917;BME280;59793;46.506;6.674;2022-10-31T12:15:27;97386.16;;;21.00;58.64
71917;BME280;59793;46.506;6.674;2022-10-31T12:20:49;97394.34;;;21.78;56.10
71917;BME280;59793;46.506;6.674;2022-10-31T12:26:08;97379.66;;;23.17;52.25
71917;BME280;59793;46.506;6.674;2022-10-31T12:31:49;97386.25;;;22.52;53.75
71917;BME280;59793;46.506;6.674;2022-10-31T12:37:17;97379.63;;;21.32;58.51
71917;BME280;59793;46.506;6.674;2022-10-31T12:40:21;97390.00;;;21.61;56.73
71917;BME280;59793;46.506;6.674;2022-10-31T12:45:56;97370.63;;;21.73;56.91
71917;BME280;59793;46.506;6.674;2022-10-31T12:59:04;97334.09;;;22.89;52.41
71917;BME280;59793;46.506;6.674;2022-10-31T13:04:50;97319.63;;;23.56;50.91
71917;BME280;59793;46.506;6.674;2022-10-31T13:07:23;97318.03;;;23.58;49.51
71917;BME280;59793;46.506;6.674;2022-10-31T13:12:20;97299.59;;;23.08;49.47
71917;BME280;59793;46.506;6.674;2022-10-31T13:14:59;97302.50;;;22.57;48.76
71917;BME280;59793;46.506;6.674;2022-10-31T13:17:38;97315.50;;;22.79;48.63
71917;BME280;59793;46.506;6.674;2022-10-31T13:20:33;97315.13;;;23.17;45.93
71917;BME280;59793;46.506;6.674;2022-10-31T13:25:46;97316.44;;;22.52;47.60
71917;BME280;59793;46.506;6.674;2022-10-31T13:28:37;97306.38;;;22.76;45.80
71917;BME280;59793;46.506;6.674;2022-10-31T13:31:05;97302.06;;;23.51;45.83
71917;BME280;59793;46.506;6.674;2022-10-31T13:33:35;97282.25;;;22.93;44.74
71917;BME280;59793;46.506;6.674;2022-10-31T13:38:54;97280.38;;;25.04;41.25
71917;BME280;59793;46.506;6.674;2022-10-31T13:44:18;97295.03;;;25.80;39.06
71917;BME280;59793;46.506;6.674;2022-10-31T13:46:45;97284.16;;;25.19;40.38
71917;BME280;59793;46.506;6.674;2022-10-31T13:54:49;97277.97;;;23.64;42.20
71917;BME280;59793;46.506;6.674;2022-10-31T13:57:41;97282.13;;;22.80;45.38
71917;BME280;59793;46.506;6.674;2022-10-31T14:02:50;97293.25;;;22.18;50.40
71917;BME280;59793;46.506;6.674;2022-10-31T14:05:31;97270.38;;;23.59;47.30
71917;BME280;59793;46.506;6.674;2022-10-31T14:08:01;97275.41;;;24.90;43.69
